sensor_id;sensor_type;location;lat;lon;timestamp;pressure;altitude;pressure_sealevel;temperature;humidity
56182;BME280;51963;46.052;14.544;2023-07-31T00:01:29;98104.81;;;19.97;100.00
56182;BME280;51963;46.052;14.544;2023-07-31T00:03:55;98108.44;;;19.86;100.00
56182;BME280;51963;46.052;14.544;2023-07-31T00:06:21;98115.31;;;19.76;100.00
56182;BME280;51963;46.052;14.544;2023-07-31T00:08:46;98124.03;;;19.61;100.00
56182;BME280;51963;46.052;14.544;2023-07-31T00:11:12;98125.91;;;19.61;100.00
56182;BME280;51963;46.052;14.544;2023-07-31T00:13:38;98127.47;;;19.57;100.00
56182;BME280;51963;46.052;14.544;2023-07-31T00:16:03;98133.94;;;19.61;100.00
56182;BME280;51963;46.052;14.544;2023-07-31T00:18:29;98126.41;;;19.58;100.00
56182;BME280;51963;46.052;14.544;2023-07-31T00:20:55;98119.38;;;19.52;100.00
56182;BME280;51963;46.052;14.544;2023-07-31T00:23:20;98100.75;;;19.67;100.00
56182;BME280;51963;46.052;14.544;2023-07-31T00:25:46;98086.59;;;19.72;100.00
56182;BME280;51963;46.052;14.544;2023-07-31T00:28:12;98084.47;;;19.46;100.00
56182;BME280;51963;46.052;14.544;2023-07-31T00:30:38;98086.69;;;19.27;100.00
56182;BME280;51963;46.052;14.544;2023-07-31T00:33:04;98088.38;;;19.11;100.00
56182;BME280;51963;46.052;14.544;2023-07-31T00:35:29;98085.03;;;18.99;100.00
56182;BME280;51963;46.052;14.544;2023-07-31T00:37:57;98086.97;;;19.03;100.00
56182;BME280;51963;46.052;14.544;2023-07-31T00:40:23;98084.28;;;19.03;100.00
56182;BME280;51963;46.052;14.544;2023-07-31T00:42:48;98088.31;;;19.06;100.00
56182;BME280;51963;46.052;14.544;2023-07-31T00:45:14;98089.44;;;19.10;100.00
56182;BME280;51963;46.052;14.544;2023-07-31T00:47:40;98088.81;;;19.03;100.00
56182;BME280;51963;46.052;14.544;2023-07-31T00:50:07;98100.78;;;18.95;100.00
56182;BME280;51963;46.052;14.544;2023-07-31T00:52:32;98089.09;;;18.84;100.00
56182;BME280;51963;46.052;14.544;2023-07-31T00:54:59;98099.09;;;18.89;100.00
56182;BME280;51963;46.052;14.544;2023-07-31T00:57:24;98103.25;;;18.80;100.00
56182;BME280;51963;46.052;14.544;2023-07-31T00:59:50;98104.25;;;18.73;100.00
56182;BME280;51963;46.052;14.544;2023-07-31T01:02:16;98106.03;;;18.68;100.00
56182;BME280;51963;46.052;14.544;2023-07-31T01:04:42;98106.16;;;18.78;100.00
56182;BME280;51963;46.052;14.544;2023-07-31T01:07:11;98094.88;;;18.76;100.00
56182;BME280;51963;46.052;14.544;2023-07-31T01:09:52;98101.44;;;18.85;100.00
56182;BME280;51963;46.052;14.544;2023-07-31T01:12:23;98082.00;;;18.73;100.00
56182;BME280;51963;46.052;14.544;2023-07-31T01:15:06;98096.84;;;18.81;100.00
56182;BME280;51963;46.052;14.544;2023-07-31T01:17:38;98087.34;;;18.73;100.00
56182;BME280;51963;46.052;14.544;2023-07-31T01:20:11;98084.13;;;18.71;100.00
56182;BME280;51963;46.052;14.544;2023-07-31T01:28:07;98087.81;;;18.47;100.00
56182;BME280;51963;46.052;14.544;2023-07-31T01:30:41;98086.94;;;18.42;100.00
56182;BME280;51963;46.052;14.544;2023-07-31T01:33:08;98092.78;;;18.39;100.00
56182;BME280;51963;46.052;14.544;2023-07-31T01:35:35;98094.16;;;18.24;100.00
56182;BME280;51963;46.052;14.544;2023-07-31T01:38:02;98095.47;;;18.22;100.00
56182;BME280;51963;46.052;14.544;2023-07-31T01:40:27;98097.47;;;18.14;100.00
56182;BME280;51963;46.052;14.544;2023-07-31T01:42:53;98096.03;;;18.07;100.00
56182;BME280;51963;46.052;14.544;2023-07-31T01:45:19;98105.03;;;18.00;100.00
56182;BME280;51963;46.052;14.544;2023-07-31T01:47:45;98106.28;;;17.98;100.00
56182;BME280;51963;46.052;14.544;2023-07-31T01:50:11;98103.31;;;17.94;100.00
56182;BME280;51963;46.052;14.544;2023-07-31T01:52:37;98117.59;;;18.00;100.00
56182;BME280;51963;46.052;14.544;2023-07-31T01:55:03;98112.75;;;18.14;100.00
56182;BME280;51963;46.052;14.544;2023-07-31T01:57:29;98112.75;;;18.14;100.00
56182;BME280;51963;46.052;14.544;2023-07-31T01:59:54;98112.34;;;18.22;100.00
56182;BME280;51963;46.052;14.544;2023-07-31T02:02:20;98105.75;;;18.47;100.00
56182;BME280;51963;46.052;14.544;2023-07-31T02:04:46;98101.53;;;18.51;100.00
56182;BME280;51963;46.052;14.544;2023-07-31T02:07:12;98099.06;;;18.50;100.00
56182;BME280;51963;46.052;14.544;2023-07-31T02:09:38;98102.00;;;18.48;100.00
56182;BME280;51963;46.052;14.544;2023-07-31T02:12:04;98105.66;;;18.42;100.00
56182;BME280;51963;46.052;14.544;2023-07-31T02:14:30;98126.81;;;18.43;100.00
56182;BME280;51963;46.052;14.544;2023-07-31T02:16:55;98130.25;;;18.39;100.00
56182;BME280;51963;46.052;14.544;2023-07-31T02:19:21;98134.28;;;18.41;100.00
56182;BME280;51963;46.052;14.544;2023-07-31T02:21:47;98135.19;;;18.47;100.00
56182;BME280;51963;46.052;14.544;2023-07-31T02:24:12;98143.38;;;18.57;100.00
56182;BME280;51963;46.052;14.544;2023-07-31T02:26:38;98139.22;;;18.67;100.00
56182;BME280;51963;46.052;14.544;2023-07-31T02:29:04;98141.88;;;18.67;100.00
56182;BME280;51963;46.052;14.544;2023-07-31T02:31:29;98142.38;;;18.64;100.00
56182;BME280;51963;46.052;14.544;2023-07-31T02:33:57;98143.50;;;18.68;100.00
56182;BME280;51963;46.052;14.544;2023-07-31T02:36:23;98159.09;;;18.71;100.00
56182;BME280;51963;46.052;14.544;2023-07-31T02:38:48;98148.88;;;18.68;100.00
56182;BME280;51963;46.052;14.544;2023-07-31T02:41:14;98153.25;;;18.74;100.00
56182;BME280;51963;46.052;14.544;2023-07-31T02:43:40;98157.31;;;18.76;100.00
56182;BME280;51963;46.052;14.544;2023-07-31T02:46:06;98165.41;;;18.82;100.00
56182;BME280;51963;46.052;14.544;2023-07-31T02:48:32;98154.66;;;18.99;100.00
56182;BME280;51963;46.052;14.544;2023-07-31T02:50:57;98160.66;;;19.06;100.00
56182;BME280;51963;46.052;14.544;2023-07-31T02:53:23;98149.97;;;18.89;100.00
56182;BME280;51963;46.052;14.544;2023-07-31T02:55:49;98158.25;;;18.87;100.00
56182;BME280;51963;46.052;14.544;2023-07-31T02:58:17;98166.69;;;18.79;100.00
56182;BME280;51963;46.052;14.544;2023-07-31T03:00:43;98157.81;;;18.73;100.00
56182;BME280;51963;46.052;14.544;2023-07-31T03:03:09;98150.13;;;18.60;100.00
56182;BME280;51963;46.052;14.544;2023-07-31T03:05:35;98149.84;;;18.61;100.00
56182;BME280;51963;46.052;14.544;2023-07-31T03:08:01;98160.47;;;18.56;100.00
56182;BME280;51963;46.052;14.544;2023-07-31T03:10:27;98161.53;;;18.55;100.00
56182;BME280;51963;46.052;14.544;2023-07-31T03:12:52;98159.72;;;18.78;100.00
56182;BME280;51963;46.052;14.544;2023-07-31T03:15:18;98165.91;;;18.61;100.00
56182;BME280;51963;46.052;14.544;2023-07-31T03:17:44;98156.03;;;18.45;100.00
56182;BME280;51963;46.052;14.544;2023-07-31T03:20:10;98152.56;;;18.27;100.00
56182;BME280;51963;46.052;14.544;2023-07-31T03:22:36;98143.13;;;18.08;100.00
56182;BME280;51963;46.052;14.544;2023-07-31T03:25:02;98150.03;;;18.03;100.00
56182;BME280;51963;46.052;14.544;2023-07-31T03:27:28;98152.00;;;17.96;100.00
56182;BME280;51963;46.052;14.544;2023-07-31T03:29:54;98149.00;;;17.93;100.00
56182;BME280;51963;46.052;14.544;2023-07-31T03:32:19;98145.44;;;17.87;100.00
56182;BME280;51963;46.052;14.544;2023-07-31T03:34:45;98139.44;;;17.80;100.00
56182;BME280;51963;46.052;14.544;2023-07-31T03:37:11;98138.28;;;17.76;100.00
56182;BME280;51963;46.052;14.544;2023-07-31T03:39:37;98123.69;;;17.66;100.00
56182;BME280;51963;46.052;14.544;2023-07-31T03:42:03;98128.69;;;17.63;100.00
56182;BME280;51963;46.052;14.544;2023-07-31T03:44:29;98133.94;;;17.57;100.00
56182;BME280;51963;46.052;14.544;2023-07-31T03:46:55;98127.44;;;17.53;100.00
56182;BME280;51963;46.052;14.544;2023-07-31T03:49:20;98133.44;;;17.43;100.00
56182;BME280;51963;46.052;14.544;2023-07-31T03:51:46;98131.22;;;17.40;100.00
56182;BME280;51963;46.052;14.544;2023-07-31T03:54:12;98133.31;;;17.38;100.00
56182;BME280;51963;46.052;14.544;2023-07-31T03:56:38;98136.84;;;17.27;100.00
56182;BME280;51963;46.052;14.544;2023-07-31T03:59:04;98136.59;;;17.28;100.00
56182;BME280;51963;46.052;14.544;2023-07-31T04:01:30;98141.91;;;17.40;100.00
56182;BME280;51963;46.052;14.544;2023-07-31T04:03:56;98142.13;;;17.51;100.00
56182;BME280;51963;46.052;14.544;2023-07-31T04:06:22;98143.25;;;17.55;100.00
56182;BME280;51963;46.052;14.544;2023-07-31T04:08:47;98142.69;;;17.53;100.00
56182;BME280;51963;46.052;14.544;2023-07-31T04:11:13;98149.75;;;17.59;100.00
56182;BME280;51963;46.052;14.544;2023-07-31T04:13:39;98151.03;;;17.56;100.00
56182;BME280;51963;46.052;14.544;2023-07-31T04:16:04;98137.00;;;17.49;100.00
56182;BME280;51963;46.052;14.544;2023-07-31T04:18:30;98153.28;;;17.48;100.00
56182;BME280;51963;46.052;14.544;2023-07-31T04:20:58;98142.59;;;17.48;100.00
56182;BME280;51963;46.052;14.544;2023-07-31T04:23:27;98150.69;;;17.53;100.00
56182;BME280;51963;46.052;14.544;2023-07-31T04:25:52;98144.78;;;17.51;100.00
56182;BME280;51963;46.052;14.544;2023-07-31T04:28:18;98159.97;;;17.62;100.00
56182;BME280;51963;46.052;14.544;2023-07-31T04:30:44;98160.44;;;17.59;100.00
56182;BME280;51963;46.052;14.544;2023-07-31T04:33:12;98168.06;;;17.67;100.00
56182;BME280;51963;46.052;14.544;2023-07-31T04:35:37;98162.81;;;17.72;100.00
56182;BME280;51963;46.052;14.544;2023-07-31T04:38:03;98140.13;;;17.75;100.00
56182;BME280;51963;46.052;14.544;2023-07-31T04:40:29;98160.09;;;17.84;100.00
56182;BME280;51963;46.052;14.544;2023-07-31T04:42:54;98160.09;;;17.84;100.00
56182;BME280;51963;46.052;14.544;2023-07-31T04:45:20;98162.53;;;17.86;100.00
56182;BME280;51963;46.052;14.544;2023-07-31T04:47:46;98162.94;;;17.95;100.00
56182;BME280;51963;46.052;14.544;2023-07-31T04:50:14;98167.88;;;18.15;100.00
56182;BME280;51963;46.052;14.544;2023-07-31T04:52:39;98159.84;;;18.15;100.00
56182;BME280;51963;46.052;14.544;2023-07-31T04:55:05;98168.34;;;18.12;100.00
56182;BME280;51963;46.052;14.544;2023-07-31T04:57:31;98154.66;;;18.25;100.00
56182;BME280;51963;46.052;14.544;2023-07-31T04:59:59;98167.47;;;18.57;100.00
56182;BME280;51963;46.052;14.544;2023-07-31T05:02:25;98171.91;;;18.52;100.00
56182;BME280;51963;46.052;14.544;2023-07-31T05:04:50;98167.88;;;18.49;100.00
56182;BME280;51963;46.052;14.544;2023-07-31T05:07:16;98158.44;;;18.46;100.00
56182;BME280;51963;46.052;14.544;2023-07-31T05:09:42;98161.13;;;18.64;100.00
56182;BME280;51963;46.052;14.544;2023-07-31T05:12:08;98170.28;;;18.68;100.00
56182;BME280;51963;46.052;14.544;2023-07-31T05:14:34;98164.44;;;18.71;100.00
56182;BME280;51963;46.052;14.544;2023-07-31T05:16:59;98154.47;;;18.66;100.00
56182;BME280;51963;46.052;14.544;2023-07-31T05:19:25;98175.16;;;18.71;100.00
56182;BME280;51963;46.052;14.544;2023-07-31T05:21:51;98166.81;;;18.50;100.00
56182;BME280;51963;46.052;14.544;2023-07-31T05:24:19;98184.38;;;18.80;100.00
56182;BME280;51963;46.052;14.544;2023-07-31T05:26:45;98181.97;;;18.61;100.00
56182;BME280;51963;46.052;14.544;2023-07-31T05:29:10;98190.72;;;18.74;100.00
56182;BME280;51963;46.052;14.544;2023-07-31T05:31:36;98185.22;;;18.64;100.00
56182;BME280;51963;46.052;14.544;2023-07-31T05:34:04;98190.81;;;18.79;100.00
56182;BME280;51963;46.052;14.544;2023-07-31T05:36:33;98192.50;;;18.85;100.00
56182;BME280;51963;46.052;14.544;2023-07-31T05:38:58;98194.13;;;18.86;100.00
56182;BME280;51963;46.052;14.544;2023-07-31T05:41:24;98190.38;;;18.87;100.00
56182;BME280;51963;46.052;14.544;2023-07-31T05:43:50;98180.56;;;18.93;100.00
56182;BME280;51963;46.052;14.544;2023-07-31T05:46:17;98181.63;;;18.92;100.00
56182;BME280;51963;46.052;14.544;2023-07-31T05:48:42;98188.91;;;19.14;100.00
56182;BME280;51963;46.052;14.544;2023-07-31T05:51:08;98193.34;;;19.25;100.00
56182;BME280;51963;46.052;14.544;2023-07-31T05:53:34;98197.56;;;19.43;100.00
56182;BME280;51963;46.052;14.544;2023-07-31T05:56:01;98193.88;;;19.72;100.00
56182;BME280;51963;46.052;14.544;2023-07-31T05:58:27;98195.22;;;19.74;100.00
56182;BME280;51963;46.052;14.544;2023-07-31T06:00:53;98184.56;;;19.79;100.00
56182;BME280;51963;46.052;14.544;2023-07-31T06:03:18;98189.19;;;19.84;100.00
56182;BME280;51963;46.052;14.544;2023-07-31T06:05:44;98185.88;;;19.77;100.00
56182;BME280;51963;46.052;14.544;2023-07-31T06:08:10;98191.66;;;19.91;100.00
56182;BME280;51963;46.052;14.544;2023-07-31T06:10:35;98190.97;;;19.78;100.00
56182;BME280;51963;46.052;14.544;2023-07-31T06:13:01;98198.69;;;19.70;100.00
56182;BME280;51963;46.052;14.544;2023-07-31T06:15:29;98187.94;;;19.92;100.00
56182;BME280;51963;46.052;14.544;2023-07-31T06:17:55;98187.41;;;19.95;100.00
56182;BME280;51963;46.052;14.544;2023-07-31T06:20:21;98188.19;;;19.90;100.00
56182;BME280;51963;46.052;14.544;2023-07-31T06:22:47;98186.63;;;19.95;100.00
56182;BME280;51963;46.052;14.544;2023-07-31T06:25:12;98176.69;;;19.95;100.00
56182;BME280;51963;46.052;14.544;2023-07-31T06:27:38;98173.63;;;19.86;100.00
56182;BME280;51963;46.052;14.544;2023-07-31T06:30:07;98174.78;;;19.90;100.00
56182;BME280;51963;46.052;14.544;2023-07-31T06:32:32;98176.94;;;19.93;100.00
56182;BME280;51963;46.052;14.544;2023-07-31T06:34:58;98184.50;;;19.97;100.00
56182;BME280;51963;46.052;14.544;2023-07-31T06:37:24;98175.06;;;19.94;100.00
56182;BME280;51963;46.052;14.544;2023-07-31T06:39:50;98178.72;;;20.10;100.00
56182;BME280;51963;46.052;14.544;2023-07-31T06:42:16;98174.31;;;20.31;100.00
56182;BME280;51963;46.052;14.544;2023-07-31T06:44:41;98166.38;;;20.47;100.00
56182;BME280;51963;46.052;14.544;2023-07-31T06:47:07;98175.13;;;20.70;100.00
56182;BME280;51963;46.052;14.544;2023-07-31T06:49:33;98189.09;;;20.72;100.00
56182;BME280;51963;46.052;14.544;2023-07-31T06:51:59;98184.72;;;20.60;100.00
56182;BME280;51963;46.052;14.544;2023-07-31T06:54:24;98189.72;;;20.79;100.00
56182;BME280;51963;46.052;14.544;2023-07-31T06:56:50;98183.78;;;20.77;100.00
56182;BME280;51963;46.052;14.544;2023-07-31T06:59:16;98183.31;;;20.85;100.00
56182;BME280;51963;46.052;14.544;2023-07-31T07:01:41;98191.66;;;20.84;100.00
56182;BME280;51963;46.052;14.544;2023-07-31T07:04:07;98192.44;;;20.46;100.00
56182;BME280;51963;46.052;14.544;2023-07-31T07:06:34;98193.97;;;20.75;100.00
56182;BME280;51963;46.052;14.544;2023-07-31T07:08:59;98194.56;;;20.82;100.00
56182;BME280;51963;46.052;14.544;2023-07-31T07:11:25;98197.13;;;20.66;100.00
56182;BME280;51963;46.052;14.544;2023-07-31T07:13:51;98180.97;;;20.94;100.00
56182;BME280;51963;46.052;14.544;2023-07-31T07:16:17;98175.63;;;21.04;100.00
56182;BME280;51963;46.052;14.544;2023-07-31T07:18:43;98179.78;;;21.28;100.00
56182;BME280;51963;46.052;14.544;2023-07-31T07:21:11;98181.75;;;21.58;100.00
56182;BME280;51963;46.052;14.544;2023-07-31T07:23:42;98186.41;;;21.73;100.00
56182;BME280;51963;46.052;14.544;2023-07-31T07:26:08;98188.88;;;22.11;100.00
56182;BME280;51963;46.052;14.544;2023-07-31T07:28:35;98185.94;;;22.28;100.00
56182;BME280;51963;46.052;14.544;2023-07-31T07:31:03;98182.72;;;22.67;100.00
56182;BME280;51963;46.052;14.544;2023-07-31T07:33:28;98194.78;;;22.96;100.00
56182;BME280;51963;46.052;14.544;2023-07-31T07:35:54;98185.81;;;23.32;100.00
56182;BME280;51963;46.052;14.544;2023-07-31T07:38:20;98187.28;;;23.64;100.00
56182;BME280;51963;46.052;14.544;2023-07-31T07:40:46;98186.00;;;24.01;100.00
56182;BME280;51963;46.052;14.544;2023-07-31T07:43:16;98189.00;;;24.34;100.00
56182;BME280;51963;46.052;14.544;2023-07-31T07:45:41;98179.84;;;24.30;100.00
56182;BME280;51963;46.052;14.544;2023-07-31T07:48:07;98177.56;;;24.13;100.00
56182;BME280;51963;46.052;14.544;2023-07-31T07:50:38;98185.88;;;23.71;100.00
56182;BME280;51963;46.052;14.544;2023-07-31T07:53:06;98185.47;;;23.94;100.00
56182;BME280;51963;46.052;14.544;2023-07-31T07:55:32;98175.19;;;24.01;100.00
56182;BME280;51963;46.052;14.544;2023-07-31T07:57:58;98177.66;;;24.32;100.00
56182;BME280;51963;46.052;14.544;2023-07-31T08:00:23;98166.38;;;24.25;100.00
56182;BME280;51963;46.052;14.544;2023-07-31T08:02:54;98171.66;;;24.40;100.00
56182;BME280;51963;46.052;14.544;2023-07-31T08:05:20;98178.31;;;24.83;100.00
56182;BME280;51963;46.052;14.544;2023-07-31T08:07:45;98183.25;;;25.24;94.79
56182;BME280;51963;46.052;14.544;2023-07-31T08:10:13;98190.31;;;25.01;100.00
56182;BME280;51963;46.052;14.544;2023-07-31T08:12:39;98181.16;;;25.45;97.25
56182;BME280;51963;46.052;14.544;2023-07-31T08:15:05;98177.88;;;25.87;91.50
56182;BME280;51963;46.052;14.544;2023-07-31T08:17:31;98179.16;;;25.51;91.07
56182;BME280;51963;46.052;14.544;2023-07-31T08:19:57;98177.94;;;25.62;89.01
56182;BME280;51963;46.052;14.544;2023-07-31T08:22:24;98182.63;;;25.76;85.58
56182;BME280;51963;46.052;14.544;2023-07-31T08:24:50;98185.97;;;25.68;88.83
56182;BME280;51963;46.052;14.544;2023-07-31T08:27:16;98187.50;;;26.12;86.27
56182;BME280;51963;46.052;14.544;2023-07-31T08:29:42;98187.75;;;26.49;81.03
56182;BME280;51963;46.052;14.544;2023-07-31T08:32:07;98191.28;;;26.83;76.71
56182;BME280;51963;46.052;14.544;2023-07-31T08:34:33;98188.81;;;26.81;81.17
56182;BME280;51963;46.052;14.544;2023-07-31T08:36:59;98191.31;;;27.11;78.90
56182;BME280;51963;46.052;14.544;2023-07-31T08:39:25;98185.84;;;26.83;76.63
56182;BME280;51963;46.052;14.544;2023-07-31T08:41:51;98187.69;;;27.29;75.67
56182;BME280;51963;46.052;14.544;2023-07-31T08:44:17;98190.50;;;28.11;73.39
56182;BME280;51963;46.052;14.544;2023-07-31T08:46:46;98188.28;;;27.54;66.96
56182;BME280;51963;46.052;14.544;2023-07-31T08:49:17;98185.00;;;27.80;59.09
56182;BME280;51963;46.052;14.544;2023-07-31T08:51:46;98175.59;;;27.49;68.11
56182;BME280;51963;46.052;14.544;2023-07-31T08:54:12;98185.94;;;27.61;65.00
56182;BME280;51963;46.052;14.544;2023-07-31T08:56:39;98176.97;;;27.61;64.13
56182;BME280;51963;46.052;14.544;2023-07-31T08:59:05;98174.38;;;27.42;67.21
56182;BME280;51963;46.052;14.544;2023-07-31T09:01:35;98174.25;;;27.75;61.57
56182;BME280;51963;46.052;14.544;2023-07-31T09:04:04;98177.13;;;28.38;56.93
56182;BME280;51963;46.052;14.544;2023-07-31T09:06:32;98173.66;;;28.46;55.17
56182;BME280;51963;46.052;14.544;2023-07-31T09:08:58;98172.44;;;28.61;54.43
56182;BME280;51963;46.052;14.544;2023-07-31T09:11:25;98169.22;;;27.68;56.05
56182;BME280;51963;46.052;14.544;2023-07-31T09:13:51;98165.09;;;27.71;58.60
56182;BME280;51963;46.052;14.544;2023-07-31T09:16:17;98159.94;;;27.83;59.41
56182;BME280;51963;46.052;14.544;2023-07-31T09:18:53;98161.72;;;27.88;58.96
56182;BME280;51963;46.052;14.544;2023-07-31T09:21:20;98160.03;;;27.27;59.61
56182;BME280;51963;46.052;14.544;2023-07-31T09:23:49;98150.00;;;27.14;64.45
56182;BME280;51963;46.052;14.544;2023-07-31T09:26:33;98148.25;;;28.19;62.54
56182;BME280;51963;46.052;14.544;2023-07-31T09:29:01;98144.84;;;29.08;55.62
56182;BME280;51963;46.052;14.544;2023-07-31T09:31:47;98151.19;;;28.32;57.82
56182;BME280;51963;46.052;14.544;2023-07-31T09:34:13;98148.06;;;29.28;56.74
56182;BME280;51963;46.052;14.544;2023-07-31T09:36:43;98151.13;;;29.26;56.31
56182;BME280;51963;46.052;14.544;2023-07-31T09:39:10;98151.69;;;29.06;53.92
56182;BME280;51963;46.052;14.544;2023-07-31T09:41:43;98141.25;;;30.10;52.25
56182;BME280;51963;46.052;14.544;2023-07-31T09:44:09;98135.63;;;29.97;54.11
56182;BME280;51963;46.052;14.544;2023-07-31T09:46:36;98140.13;;;29.58;52.71
56182;BME280;51963;46.052;14.544;2023-07-31T09:49:13;98134.66;;;29.32;54.83
56182;BME280;51963;46.052;14.544;2023-07-31T09:51:41;98126.91;;;29.07;57.17
56182;BME280;51963;46.052;14.544;2023-07-31T09:54:15;98130.34;;;28.81;55.85
56182;BME280;51963;46.052;14.544;2023-07-31T09:56:48;98136.25;;;27.98;60.06
56182;BME280;51963;46.052;14.544;2023-07-31T09:59:19;98125.28;;;27.01;68.02
56182;BME280;51963;46.052;14.544;2023-07-31T10:01:46;98123.63;;;27.79;62.55
56182;BME280;51963;46.052;14.544;2023-07-31T10:04:13;98115.03;;;28.63;60.13
56182;BME280;51963;46.052;14.544;2023-07-31T10:06:40;98110.00;;;28.79;60.59
56182;BME280;51963;46.052;14.544;2023-07-31T10:09:09;98120.16;;;28.96;58.13
56182;BME280;51963;46.052;14.544;2023-07-31T10:11:51;98111.41;;;28.76;60.46
56182;BME280;51963;46.052;14.544;2023-07-31T10:14:20;98108.03;;;29.20;53.96
56182;BME280;51963;46.052;14.544;2023-07-31T10:16:46;98111.91;;;29.36;51.33
56182;BME280;51963;46.052;14.544;2023-07-31T10:19:12;98112.03;;;28.73;54.92
56182;BME280;51963;46.052;14.544;2023-07-31T10:21:38;98112.94;;;28.05;59.42
56182;BME280;51963;46.052;14.544;2023-07-31T10:24:08;98104.25;;;27.94;59.58
56182;BME280;51963;46.052;14.544;2023-07-31T10:26:35;98108.19;;;27.65;62.86
56182;BME280;51963;46.052;14.544;2023-07-31T10:29:03;98100.56;;;27.67;60.29
56182;BME280;51963;46.052;14.544;2023-07-31T10:31:30;98107.03;;;27.80;62.41
56182;BME280;51963;46.052;14.544;2023-07-31T10:33:58;98104.59;;;27.42;65.82
56182;BME280;51963;46.052;14.544;2023-07-31T10:36:25;98107.88;;;27.30;63.98
56182;BME280;51963;46.052;14.544;2023-07-31T10:38:51;98108.44;;;27.55;60.76
56182;BME280;51963;46.052;14.544;2023-07-31T10:41:17;98105.66;;;27.32;64.87
56182;BME280;51963;46.052;14.544;2023-07-31T10:43:55;98103.38;;;28.08;61.43
56182;BME280;51963;46.052;14.544;2023-07-31T10:46:22;98097.09;;;28.21;57.40
56182;BME280;51963;46.052;14.544;2023-07-31T10:49:02;98096.25;;;29.68;53.88
56182;BME280;51963;46.052;14.544;2023-07-31T10:51:35;98100.88;;;29.33;53.42
56182;BME280;51963;46.052;14.544;2023-07-31T10:54:11;98094.84;;;28.87;56.77
56182;BME280;51963;46.052;14.544;2023-07-31T10:56:38;98090.16;;;29.63;53.39
56182;BME280;51963;46.052;14.544;2023-07-31T10:59:05;98094.72;;;29.09;56.03
56182;BME280;51963;46.052;14.544;2023-07-31T11:01:53;98086.94;;;30.05;51.50
56182;BME280;51963;46.052;14.544;2023-07-31T11:04:28;98083.63;;;30.38;51.12
56182;BME280;51963;46.052;14.544;2023-07-31T11:06:58;98094.13;;;31.26;46.71
56182;BME280;51963;46.052;14.544;2023-07-31T11:09:28;98081.81;;;32.29;44.72
56182;BME280;51963;46.052;14.544;2023-07-31T11:11:55;98078.94;;;32.97;42.61
56182;BME280;51963;46.052;14.544;2023-07-31T11:14:22;98074.56;;;33.08;39.43
56182;BME280;51963;46.052;14.544;2023-07-31T11:16:50;98085.75;;;32.53;40.82
56182;BME280;51963;46.052;14.544;2023-07-31T11:19:25;98070.25;;;29.97;48.18
56182;BME280;51963;46.052;14.544;2023-07-31T11:21:52;98071.25;;;29.66;51.54
56182;BME280;51963;46.052;14.544;2023-07-31T11:24:19;98073.19;;;29.39;50.83
56182;BME280;51963;46.052;14.544;2023-07-31T11:26:49;98055.16;;;28.94;53.03
56182;BME280;51963;46.052;14.544;2023-07-31T11:29:16;98061.31;;;30.44;49.55
56182;BME280;51963;46.052;14.544;2023-07-31T11:31:42;98071.94;;;31.49;44.85
56182;BME280;51963;46.052;14.544;2023-07-31T11:34:08;98055.22;;;29.82;51.28
56182;BME280;51963;46.052;14.544;2023-07-31T11:36:34;98067.03;;;31.21;47.49
56182;BME280;51963;46.052;14.544;2023-07-31T11:39:10;98052.28;;;31.77;44.90
56182;BME280;51963;46.052;14.544;2023-07-31T11:41:40;98069.56;;;30.18;46.69
56182;BME280;51963;46.052;14.544;2023-07-31T11:44:07;98063.66;;;28.93;53.49
56182;BME280;51963;46.052;14.544;2023-07-31T11:47:00;98059.06;;;27.99;59.14
56182;BME280;51963;46.052;14.544;2023-07-31T11:49:27;98059.22;;;28.25;57.92
56182;BME280;51963;46.052;14.544;2023-07-31T11:51:56;98055.03;;;28.50;57.84
56182;BME280;51963;46.052;14.544;2023-07-31T11:54:29;98055.16;;;28.86;55.10
56182;BME280;51963;46.052;14.544;2023-07-31T11:56:59;98059.34;;;29.09;56.13
56182;BME280;51963;46.052;14.544;2023-07-31T11:59:27;98043.50;;;28.53;60.60
56182;BME280;51963;46.052;14.544;2023-07-31T12:01:53;98037.13;;;29.16;55.50
56182;BME280;51963;46.052;14.544;2023-07-31T12:04:19;98044.91;;;31.77;47.15
56182;BME280;51963;46.052;14.544;2023-07-31T12:06:47;98048.72;;;33.34;41.67
56182;BME280;51963;46.052;14.544;2023-07-31T12:09:14;98039.56;;;33.99;41.74
56182;BME280;51963;46.052;14.544;2023-07-31T12:11:47;98046.53;;;31.69;45.83
56182;BME280;51963;46.052;14.544;2023-07-31T12:14:24;98042.69;;;29.90;51.63
56182;BME280;51963;46.052;14.544;2023-07-31T12:16:58;98039.47;;;30.83;49.69
56182;BME280;51963;46.052;14.544;2023-07-31T12:19:27;98033.53;;;32.96;43.61
56182;BME280;51963;46.052;14.544;2023-07-31T12:21:59;98026.47;;;32.70;45.19
56182;BME280;51963;46.052;14.544;2023-07-31T12:24:26;98021.22;;;30.75;47.08
56182;BME280;51963;46.052;14.544;2023-07-31T12:26:52;98015.00;;;29.09;54.19
56182;BME280;51963;46.052;14.544;2023-07-31T12:29:18;97992.63;;;28.45;58.82
56182;BME280;51963;46.052;14.544;2023-07-31T12:31:44;98000.53;;;28.73;57.68
56182;BME280;51963;46.052;14.544;2023-07-31T12:34:17;98001.16;;;27.89;61.80
56182;BME280;51963;46.052;14.544;2023-07-31T12:36:44;97988.91;;;28.01;61.37
56182;BME280;51963;46.052;14.544;2023-07-31T12:39:10;97972.53;;;27.37;64.10
56182;BME280;51963;46.052;14.544;2023-07-31T12:41:35;97979.72;;;29.83;53.71
56182;BME280;51963;46.052;14.544;2023-07-31T12:44:03;97987.50;;;31.77;48.76
56182;BME280;51963;46.052;14.544;2023-07-31T12:46:32;97969.47;;;30.87;49.30
56182;BME280;51963;46.052;14.544;2023-07-31T12:48:57;97962.53;;;30.69;49.45